Time;durP1;ratioP1;P1;durP2;ratioP2;P2;SDS_P1;SDS_P2;PMS_P1;PMS_P2;Temp;Humidity;BMP_temperature;BMP_pressure;BME280_temperature;BME280_humidity;BME280_pressure;Samples;Min_cycle;Max_cycle;Signal;HPM_P1;HPM_P2
2023/07/16 00:01:20;;;;;;;3.42;2.50;;;;;;;;;;4726361;30;20053;-85
2023/07/16 00:03:48;;;;;;;2.50;2.35;;;;;;;;;;4728363;30;20547;-84
2023/07/16 00:06:15;;;;;;;2.78;2.58;;;;;;;;;;4727256;30;20040;-86
2023/07/16 00:08:43;;;;;;;2.70;2.50;;;;;;;;;;4725818;30;20740;-86
2023/07/16 00:11:11;;;;;;;3.75;2.30;;;;;;;;;;4727473;30;20542;-86
2023/07/16 00:13:38;;;;;;;3.03;2.55;;;;;;;;;;4731548;30;20071;-86
2023/07/16 00:16:05;;;;;;;2.67;2.50;;;;;;;;;;4730398;30;20136;-86
2023/07/16 00:18:35;;;;;;;2.88;2.67;;;;;;;;;;4730617;30;20064;-86
2023/07/16 00:21:02;;;;;;;2.80;2.60;;;;;;;;;;4724657;30;20049;-84
2023/07/16 00:23:30;;;;;;;2.65;2.45;;;;;;;;;;4718788;30;20465;-84
2023/07/16 00:25:57;;;;;;;2.85;2.67;;;;;;;;;;4723341;30;20599;-84
2023/07/16 00:28:25;;;;;;;2.92;2.58;;;;;;;;;;4726900;30;20052;-84
2023/07/16 00:30:52;;;;;;;2.72;2.53;;;;;;;;;;4727170;30;20795;-84
2023/07/16 00:33:20;;;;;;;2.75;2.55;;;;;;;;;;4729519;30;20075;-84
2023/07/16 00:35:49;;;;;;;2.83;2.63;;;;;;;;;;4729798;30;20064;-84
2023/07/16 00:38:20;;;;;;;2.55;2.42;;;;;;;;;;4730022;30;20080;-84
2023/07/16 00:40:47;;;;;;;4.63;2.88;;;;;;;;;;4723862;30;20091;-84
2023/07/16 00:43:15;;;;;;;2.80;2.60;;;;;;;;;;4726099;30;20118;-84
2023/07/16 00:45:45;;;;;;;2.60;2.50;;;;;;;;;;4727957;30;20212;-84
2023/07/16 00:48:13;;;;;;;2.55;2.45;;;;;;;;;;4728158;30;20063;-85
2023/07/16 00:50:41;;;;;;;2.78;2.58;;;;;;;;;;4721358;30;20068;-85
2023/07/16 00:53:09;;;;;;;2.25;2.13;;;;;;;;;;4731294;30;20064;-84
2023/07/16 00:55:37;;;;;;;2.78;2.38;;;;;;;;;;4721360;30;20444;-84
2023/07/16 00:58:05;;;;;;;3.13;2.92;;;;;;;;;;4723567;30;20065;-84
2023/07/16 01:00:33;;;;;;;2.60;2.40;;;;;;;;;;4726471;30;20045;-84
2023/07/16 01:03:10;;;;;;;2.65;2.55;;;;;;;;;;4726507;30;20051;-85
2023/07/16 01:05:40;;;;;;;2.67;2.55;;;;;;;;;;4719875;30;20061;-84
2023/07/16 01:08:10;;;;;;;2.38;2.25;;;;;;;;;;4727804;30;20052;-84
2023/07/16 01:10:38;;;;;;;3.35;2.60;;;;;;;;;;4726431;30;20053;-84
2023/07/16 01:13:05;;;;;;;2.38;2.28;;;;;;;;;;4729539;30;20510;-85
2023/07/16 01:15:33;;;;;;;2.45;2.25;;;;;;;;;;4726869;30;20505;-86
2023/07/16 01:18:01;;;;;;;2.45;2.35;;;;;;;;;;4723693;30;20108;-86
2023/07/16 01:20:28;;;;;;;2.85;2.38;;;;;;;;;;4723902;30;20068;-86
2023/07/16 01:23:11;;;;;;;2.78;2.50;;;;;;;;;;4727614;30;20048;-86
2023/07/16 01:25:47;;;;;;;2.83;2.63;;;;;;;;;;4727184;30;20484;-86
2023/07/16 01:28:18;;;;;;;2.85;2.67;;;;;;;;;;4729784;30;20427;-86
2023/07/16 01:30:45;;;;;;;2.90;2.70;;;;;;;;;;4727234;30;20131;-86
2023/07/16 01:33:13;;;;;;;3.08;2.80;;;;;;;;;;4728741;30;20184;-86
2023/07/16 01:35:41;;;;;;;2.55;2.35;;;;;;;;;;4727347;30;20053;-86
2023/07/16 01:38:09;;;;;;;2.75;2.60;;;;;;;;;;4729511;30;20052;-86
2023/07/16 01:40:36;;;;;;;2.95;2.30;;;;;;;;;;4727530;30;20424;-86
2023/07/16 01:43:04;;;;;;;2.05;1.95;;;;;;;;;;4727479;30;20524;-86
2023/07/16 01:45:31;;;;;;;2.58;2.38;;;;;;;;;;4725516;30;20722;-85
2023/07/16 01:48:02;;;;;;;4.55;2.42;;;;;;;;;;4728224;30;20049;-86
2023/07/16 01:50:29;;;;;;;2.05;1.95;;;;;;;;;;4723542;30;20524;-85
2023/07/16 01:52:57;;;;;;;5.68;1.90;;;;;;;;;;4728338;30;20756;-86
2023/07/16 01:55:25;;;;;;;1.65;1.55;;;;;;;;;;4725059;30;20139;-86
2023/07/16 01:57:53;;;;;;;2.83;2.05;;;;;;;;;;4727833;30;20064;-86
2023/07/16 02:00:20;;;;;;;3.33;1.90;;;;;;;;;;4726542;30;20180;-86
2023/07/16 02:02:50;;;;;;;3.33;1.80;;;;;;;;;;4729319;30;20055;-86
2023/07/16 02:05:18;;;;;;;2.00;1.85;;;;;;;;;;4727099;30;20052;-86
2023/07/16 02:07:45;;;;;;;1.80;1.70;;;;;;;;;;4728994;30;20064;-86
2023/07/16 02:10:12;;;;;;;3.03;1.67;;;;;;;;;;4721709;30;20064;-86
2023/07/16 02:12:40;;;;;;;1.70;1.60;;;;;;;;;;4726844;30;20057;-86
2023/07/16 02:15:07;;;;;;;1.95;1.85;;;;;;;;;;4723178;30;20540;-86
2023/07/16 02:17:36;;;;;;;2.25;1.70;;;;;;;;;;4727981;30;20114;-86
2023/07/16 02:20:05;;;;;;;1.75;1.65;;;;;;;;;;4728190;30;20072;-86
2023/07/16 02:22:33;;;;;;;3.20;1.92;;;;;;;;;;4726489;30;20427;-85
2023/07/16 02:25:00;;;;;;;1.50;1.40;;;;;;;;;;4722851;30;20057;-85
2023/07/16 02:27:28;;;;;;;1.65;1.60;;;;;;;;;;4728650;30;20053;-86
2023/07/16 02:29:55;;;;;;;1.88;1.67;;;;;;;;;;4727490;30;20131;-86
2023/07/16 02:32:23;;;;;;;1.77;1.67;;;;;;;;;;4726104;30;20056;-86
2023/07/16 02:34:50;;;;;;;2.83;1.70;;;;;;;;;;4727373;30;20059;-86
2023/07/16 02:37:18;;;;;;;1.92;1.55;;;;;;;;;;4724905;30;20059;-85
2023/07/16 02:39:48;;;;;;;2.00;1.90;;;;;;;;;;4724828;30;20611;-86
2023/07/16 02:42:16;;;;;;;2.63;1.80;;;;;;;;;;4721992;30;20570;-86
2023/07/16 02:44:44;;;;;;;1.75;1.65;;;;;;;;;;4723290;30;20080;-85
2023/07/16 02:47:12;;;;;;;1.88;1.77;;;;;;;;;;4726808;30;20473;-86
2023/07/16 02:49:40;;;;;;;1.73;1.63;;;;;;;;;;4724503;30;20053;-86
2023/07/16 02:52:07;;;;;;;1.83;1.70;;;;;;;;;;4725760;30;20483;-86
2023/07/16 02:54:38;;;;;;;8.52;1.88;;;;;;;;;;4728657;30;20056;-86
2023/07/16 02:57:06;;;;;;;3.50;1.92;;;;;;;;;;4729347;30;20056;-86
2023/07/16 02:59:34;;;;;;;3.42;1.70;;;;;;;;;;4729629;30;20047;-86
2023/07/16 03:02:04;;;;;;;1.92;1.60;;;;;;;;;;4725388;30;20398;-86
2023/07/16 03:04:33;;;;;;;1.70;1.60;;;;;;;;;;4730636;30;20484;-86
2023/07/16 03:07:01;;;;;;;1.63;1.52;;;;;;;;;;4725437;30;20110;-86
2023/07/16 03:09:29;;;;;;;1.60;1.50;;;;;;;;;;4720334;30;20819;-85
2023/07/16 03:11:56;;;;;;;1.70;1.60;;;;;;;;;;4725983;30;20098;-87
2023/07/16 03:14:24;;;;;;;1.85;1.70;;;;;;;;;;4731642;30;20072;-85
2023/07/16 03:16:51;;;;;;;1.60;1.50;;;;;;;;;;4729222;30;20053;-87
2023/07/16 03:19:19;;;;;;;1.70;1.60;;;;;;;;;;4726519;30;20714;-87
2023/07/16 03:21:50;;;;;;;1.83;1.20;;;;;;;;;;4727925;30;20060;-86
2023/07/16 03:24:18;;;;;;;1.23;1.23;;;;;;;;;;4728498;30;20057;-87
2023/07/16 03:27:04;;;;;;;1.63;1.20;;;;;;;;;;4734229;30;20049;-85
2023/07/16 03:29:55;;;;;;;1.48;1.40;;;;;;;;;;4727612;30;20516;-86
2023/07/16 03:32:40;;;;;;;1.20;1.10;;;;;;;;;;4716694;30;20072;-86
2023/07/16 03:35:30;;;;;;;1.60;1.50;;;;;;;;;;4728764;30;20199;-86
2023/07/16 03:38:05;;;;;;;1.55;1.42;;;;;;;;;;4726357;30;20050;-86
2023/07/16 03:40:37;;;;;;;1.40;1.30;;;;;;;;;;4738532;30;20135;-87
2023/07/16 03:43:10;;;;;;;1.65;1.38;;;;;;;;;;4725379;30;20052;-86
2023/07/16 03:45:43;;;;;;;1.30;1.20;;;;;;;;;;4728095;30;20084;-86
2023/07/16 03:48:15;;;;;;;1.40;1.30;;;;;;;;;;4727640;30;20455;-86
2023/07/16 03:50:54;;;;;;;1.23;1.10;;;;;;;;;;4729000;30;20052;-86
2023/07/16 03:53:28;;;;;;;1.50;1.45;;;;;;;;;;4729932;30;20554;-86
2023/07/16 03:56:21;;;;;;;1.13;1.05;;;;;;;;;;4728368;30;20417;-86
2023/07/16 03:58:48;;;;;;;1.50;1.13;;;;;;;;;;4729053;30;20052;-86
2023/07/16 04:01:16;;;;;;;1.20;1.20;;;;;;;;;;4730555;30;20415;-86
2023/07/16 04:03:44;;;;;;;1.35;1.25;;;;;;;;;;4727757;30;20060;-86
2023/07/16 04:06:12;;;;;;;1.63;1.50;;;;;;;;;;4720314;30;20071;-86
2023/07/16 04:08:40;;;;;;;3.13;1.50;;;;;;;;;;4729287;30;20128;-86
2023/07/16 04:11:08;;;;;;;1.38;1.27;;;;;;;;;;4730909;30;20059;-86
2023/07/16 04:13:36;;;;;;;1.92;1.30;;;;;;;;;;4727511;30;20129;-86
2023/07/16 04:16:03;;;;;;;1.92;1.73;;;;;;;;;;4730001;30;20222;-86
2023/07/16 04:18:34;;;;;;;2.05;1.60;;;;;;;;;;4731471;30;20061;-86
2023/07/16 04:21:03;;;;;;;1.75;1.50;;;;;;;;;;4730994;30;20045;-85
2023/07/16 04:23:30;;;;;;;1.30;1.20;;;;;;;;;;4730704;30;20788;-87
2023/07/16 04:25:58;;;;;;;1.45;1.40;;;;;;;;;;4728367;30;20550;-86
2023/07/16 04:28:26;;;;;;;1.77;1.60;;;;;;;;;;4728973;30;20516;-86
2023/07/16 04:30:53;;;;;;;1.40;1.27;;;;;;;;;;4730435;30;20056;-86
2023/07/16 04:33:22;;;;;;;1.67;1.58;;;;;;;;;;4728552;30;20696;-86
2023/07/16 04:35:52;;;;;;;1.58;1.48;;;;;;;;;;4728678;30;20147;-86
2023/07/16 04:38:20;;;;;;;1.70;1.50;;;;;;;;;;4730393;30;20649;-86
2023/07/16 04:40:48;;;;;;;1.40;1.40;;;;;;;;;;4728517;30;20774;-85
2023/07/16 04:43:16;;;;;;;1.55;1.45;;;;;;;;;;4728415;30;20241;-85
2023/07/16 04:45:46;;;;;;;1.30;1.30;;;;;;;;;;4722272;30;20140;-86
2023/07/16 04:48:14;;;;;;;1.83;1.63;;;;;;;;;;4728623;30;20049;-86
2023/07/16 04:50:41;;;;;;;1.88;1.70;;;;;;;;;;4730736;30;20060;-86
2023/07/16 04:53:09;;;;;;;2.53;1.88;;;;;;;;;;4729273;30;20057;-86
2023/07/16 04:55:38;;;;;;;1.80;1.70;;;;;;;;;;4721702;30;20053;-86
2023/07/16 04:58:05;;;;;;;1.98;1.73;;;;;;;;;;4730084;30;20208;-86
2023/07/16 05:00:33;;;;;;;1.58;1.48;;;;;;;;;;4728653;30;20055;-86
2023/07/16 05:03:00;;;;;;;1.90;1.50;;;;;;;;;;4727098;30;20349;-86
2023/07/16 05:05:28;;;;;;;2.08;1.92;;;;;;;;;;4719732;30;20072;-86
2023/07/16 05:08:12;;;;;;;2.72;1.58;;;;;;;;;;4726622;30;20114;-86
2023/07/16 05:10:40;;;;;;;1.80;1.70;;;;;;;;;;4728977;30;20106;-84
2023/07/16 05:13:07;;;;;;;2.03;1.80;;;;;;;;;;4720670;30;20521;-85
2023/07/16 05:15:34;;;;;;;1.60;1.50;;;;;;;;;;4721836;30;20117;-86
2023/07/16 05:18:02;;;;;;;1.73;1.63;;;;;;;;;;4728689;30;20082;-86
2023/07/16 05:20:30;;;;;;;1.83;1.70;;;;;;;;;;4729157;30;20547;-86
2023/07/16 05:23:05;;;;;;;1.50;1.40;;;;;;;;;;4720598;30;20080;-85
2023/07/16 05:25:33;;;;;;;1.70;1.60;;;;;;;;;;4725099;30;20645;-85
2023/07/16 05:28:02;;;;;;;2.60;1.40;;;;;;;;;;4729598;30;20168;-85
2023/07/16 05:30:30;;;;;;;1.60;1.50;;;;;;;;;;4728137;30;20665;-85
2023/07/16 05:32:57;;;;;;;1.40;1.30;;;;;;;;;;4725854;30;20057;-86
2023/07/16 05:35:25;;;;;;;1.55;1.48;;;;;;;;;;4724345;30;20524;-85
2023/07/16 05:37:52;;;;;;;1.40;1.40;;;;;;;;;;4727343;30;20056;-86
2023/07/16 05:40:19;;;;;;;1.60;1.50;;;;;;;;;;4725200;30;20071;-86
2023/07/16 05:42:47;;;;;;;1.50;1.45;;;;;;;;;;4726802;30;20045;-85
2023/07/16 05:45:14;;;;;;;1.30;1.20;;;;;;;;;;4728312;30;20087;-85
2023/07/16 05:47:42;;;;;;;1.38;1.27;;;;;;;;;;4719258;30;20151;-86
2023/07/16 05:50:09;;;;;;;1.80;1.70;;;;;;;;;;4728029;30;20048;-85
2023/07/16 05:52:37;;;;;;;1.50;1.40;;;;;;;;;;4728353;30;20052;-85
2023/07/16 05:55:04;;;;;;;1.70;1.50;;;;;;;;;;4728325;30;20151;-86
2023/07/16 05:57:31;;;;;;;1.60;1.50;;;;;;;;;;4723764;30;20057;-86
2023/07/16 05:59:59;;;;;;;1.40;1.30;;;;;;;;;;4730120;30;20140;-86
2023/07/16 06:02:26;;;;;;;1.10;1.10;;;;;;;;;;4725145;30;20060;-86
2023/07/16 06:04:54;;;;;;;2.15;1.33;;;;;;;;;;4727509;30;20582;-85
2023/07/16 06:07:21;;;;;;;1.30;1.30;;;;;;;;;;4723581;30;20141;-85
2023/07/16 06:09:48;;;;;;;1.40;1.30;;;;;;;;;;4723607;30;20045;-85
2023/07/16 06:12:16;;;;;;;1.40;1.30;;;;;;;;;;4728231;30;20056;-85
2023/07/16 06:14:43;;;;;;;1.10;1.10;;;;;;;;;;4727874;30;20064;-85
2023/07/16 06:17:11;;;;;;;1.38;1.27;;;;;;;;;;4727539;30;20057;-85
2023/07/16 06:19:38;;;;;;;1.40;1.40;;;;;;;;;;4723874;30;20048;-86
2023/07/16 06:22:08;;;;;;;1.27;1.17;;;;;;;;;;4727783;30;20106;-85
2023/07/16 06:24:37;;;;;;;1.30;1.30;;;;;;;;;;4721327;30;20053;-86
2023/07/16 06:27:10;;;;;;;1.33;1.20;;;;;;;;;;4729281;30;20651;-86
2023/07/16 06:29:40;;;;;;;1.95;1.33;;;;;;;;;;4729703;30;20049;-86
2023/07/16 06:32:10;;;;;;;1.17;1.17;;;;;;;;;;4727883;30;20056;-86
2023/07/16 06:34:44;;;;;;;1.20;1.15;;;;;;;;;;4731568;30;20045;-86
2023/07/16 06:37:34;;;;;;;1.20;1.20;;;;;;;;;;4727089;30;20173;-86
2023/07/16 06:40:16;;;;;;;1.40;1.30;;;;;;;;;;4728413;30;20052;-86
2023/07/16 06:42:49;;;;;;;1.02;1.02;;;;;;;;;;4733260;30;20525;-86
2023/07/16 06:45:20;;;;;;;1.52;1.30;;;;;;;;;;4729616;30;20076;-86
2023/07/16 06:47:48;;;;;;;1.10;1.10;;;;;;;;;;4730374;30;20587;-86
2023/07/16 06:50:16;;;;;;;1.50;1.40;;;;;;;;;;4734363;30;20053;-85
2023/07/16 06:52:43;;;;;;;1.30;1.30;;;;;;;;;;4745054;30;20041;-86
2023/07/16 06:55:10;;;;;;;1.10;1.10;;;;;;;;;;4752331;30;20033;-86
2023/07/16 06:57:38;;;;;;;1.17;1.17;;;;;;;;;;4755291;30;20081;-85
2023/07/16 07:00:06;;;;;;;0.98;0.98;;;;;;;;;;4731577;30;20053;-86
2023/07/16 07:02:33;;;;;;;0.90;0.90;;;;;;;;;;4731039;30;20205;-85
2023/07/16 07:05:01;;;;;;;1.23;1.13;;;;;;;;;;4729436;30;20048;-86
2023/07/16 07:07:29;;;;;;;1.08;1.05;;;;;;;;;;4731747;30;20080;-86
2023/07/16 07:09:56;;;;;;;1.83;1.10;;;;;;;;;;4730830;30;20068;-86
2023/07/16 07:12:24;;;;;;;1.00;1.00;;;;;;;;;;4729651;30;20139;-85
2023/07/16 07:14:54;;;;;;;1.15;1.15;;;;;;;;;;4727293;30;20600;-85
2023/07/16 07:17:22;;;;;;;1.05;1.05;;;;;;;;;;4731330;30;20088;-86
2023/07/16 07:19:49;;;;;;;0.95;0.95;;;;;;;;;;4729796;30;20536;-86
2023/07/16 07:22:17;;;;;;;1.30;1.20;;;;;;;;;;4731156;30;20051;-86
2023/07/16 07:24:48;;;;;;;1.20;1.20;;;;;;;;;;4731399;30;20623;-86
2023/07/16 07:27:15;;;;;;;1.42;1.33;;;;;;;;;;4731743;30;20036;-86
2023/07/16 07:29:43;;;;;;;1.20;1.20;;;;;;;;;;4731902;30;20241;-86
2023/07/16 07:32:10;;;;;;;2.10;1.20;;;;;;;;;;4731079;30;20125;-86
2023/07/16 07:34:39;;;;;;;1.30;1.20;;;;;;;;;;4729483;30;20048;-86
2023/07/16 07:37:07;;;;;;;1.20;1.10;;;;;;;;;;4724713;30;20068;-86
2023/07/16 07:39:34;;;;;;;1.30;1.10;;;;;;;;;;4729762;30;20702;-86
2023/07/16 07:42:05;;;;;;;1.13;1.10;;;;;;;;;;4731268;30;20507;-86
2023/07/16 07:45:09;;;;;;;1.55;1.13;;;;;;;;;;4729856;30;20096;-86
2023/07/16 07:48:17;;;;;;;1.30;1.20;;;;;;;;;;4726803;30;20064;-86
2023/07/16 07:50:47;;;;;;;2.20;1.00;;;;;;;;;;4727725;30;20071;-85
2023/07/16 07:53:26;;;;;;;1.63;1.10;;;;;;;;;;4728007;30;20051;-86
2023/07/16 07:56:09;;;;;;;1.20;1.10;;;;;;;;;;4723261;30;20141;-86
2023/07/16 07:58:36;;;;;;;1.38;1.00;;;;;;;;;;4729181;30;20202;-86
2023/07/16 08:13:46;;;;;;;1.38;1.00;;;;;;;;;;4745376;30;20055;-84
2023/07/16 08:16:25;;;;;;;1.60;1.02;;;;;;;;;;4729651;30;20079;-85
2023/07/16 08:19:49;;;;;;;1.35;1.00;;;;;;;;;;4689085;30;20529;-85
2023/07/16 08:22:52;;;;;;;;;;;;;;;;;;4690461;30;20590;-84
2023/07/16 08:25:28;;;;;;;0.95;0.80;;;;;;;;;;4722511;24;20488;-77
2023/07/16 08:27:55;;;;;;;0.90;0.90;;;;;;;;;;4730781;30;20052;-77
2023/07/16 08:30:23;;;;;;;0.85;0.85;;;;;;;;;;4730021;30;20059;-77
2023/07/16 08:32:50;;;;;;;1.45;0.82;;;;;;;;;;4729467;30;20107;-78
2023/07/16 08:35:19;;;;;;;0.75;0.75;;;;;;;;;;4728254;30;20067;-77
2023/07/16 08:37:47;;;;;;;0.70;0.70;;;;;;;;;;4731168;30;20060;-77
2023/07/16 08:40:14;;;;;;;1.08;1.00;;;;;;;;;;4729900;30;20059;-77
2023/07/16 08:42:45;;;;;;;0.80;0.80;;;;;;;;;;4730024;30;20112;-78
2023/07/16 08:45:16;;;;;;;0.95;0.95;;;;;;;;;;4729864;30;20063;-77
2023/07/16 08:47:43;;;;;;;1.33;0.77;;;;;;;;;;4728679;30;20116;-77
2023/07/16 08:50:11;;;;;;;1.17;1.17;;;;;;;;;;4730585;30;20108;-77
2023/07/16 08:52:39;;;;;;;0.90;0.90;;;;;;;;;;4724955;30;20131;-77
2023/07/16 08:55:07;;;;;;;2.03;1.10;;;;;;;;;;4724596;30;20573;-77
2023/07/16 08:57:35;;;;;;;1.00;1.00;;;;;;;;;;4726697;30;20057;-77
2023/07/16 09:00:03;;;;;;;0.68;0.68;;;;;;;;;;4729450;30;20052;-77
2023/07/16 09:02:33;;;;;;;1.05;1.00;;;;;;;;;;4726215;30;20192;-78
2023/07/16 09:05:01;;;;;;;1.00;1.00;;;;;;;;;;4730498;30;20400;-78
2023/07/16 09:07:28;;;;;;;0.90;0.90;;;;;;;;;;4729551;30;20054;-78
2023/07/16 09:09:59;;;;;;;0.95;0.95;;;;;;;;;;4716781;30;20493;-77
2023/07/16 09:12:27;;;;;;;;;;;;;;;;;;4718546;30;20072;-77
2023/07/16 09:14:55;;;;;;;1.00;1.00;;;;;;;;;;4727381;30;20375;-77
2023/07/16 09:17:26;;;;;;;2.78;0.90;;;;;;;;;;4725031;30;20057;-77
2023/07/16 09:19:53;;;;;;;;;;;;;;;;;;4729296;30;20056;-77
2023/07/16 09:22:21;;;;;;;0.90;0.90;;;;;;;;;;4729582;30;19938;-75
2023/07/16 09:24:48;;;;;;;0.90;0.90;;;;;;;;;;4725291;30;20056;-75
2023/07/16 09:27:16;;;;;;;1.95;1.00;;;;;;;;;;4727527;30;20420;-76
2023/07/16 09:29:43;;;;;;;0.90;0.90;;;;;;;;;;4728735;30;20122;-77
2023/07/16 09:32:11;;;;;;;0.90;0.90;;;;;;;;;;4728560;30;20637;-77
2023/07/16 09:34:38;;;;;;;1.08;0.95;;;;;;;;;;4724200;30;20125;-77
2023/07/16 09:37:06;;;;;;;0.95;0.95;;;;;;;;;;4727481;30;20060;-76
2023/07/16 09:39:34;;;;;;;0.95;0.90;;;;;;;;;;4727336;30;20060;-76
2023/07/16 09:42:02;;;;;;;0.85;0.85;;;;;;;;;;4725783;30;20196;-77
2023/07/16 09:44:31;;;;;;;0.90;0.90;;;;;;;;;;4721517;30;20052;-77
2023/07/16 09:46:58;;;;;;;0.75;0.75;;;;;;;;;;4722479;30;20109;-77
2023/07/16 09:49:30;;;;;;;0.80;0.80;;;;;;;;;;4722460;30;20064;-77
2023/07/16 09:51:58;;;;;;;3.22;1.10;;;;;;;;;;4727964;30;20409;-77
2023/07/16 09:54:27;;;;;;;0.80;0.80;;;;;;;;;;4726508;30;20053;-77
2023/07/16 09:56:58;;;;;;;0.95;0.95;;;;;;;;;;4727238;30;20102;-77
2023/07/16 09:59:25;;;;;;;;;;;;;;;;;;4732451;30;20056;-77
2023/07/16 10:01:53;;;;;;;2.17;1.00;;;;;;;;;;4731132;30;20481;-77
2023/07/16 10:04:21;;;;;;;1.58;1.48;;;;;;;;;;4726326;30;20637;-78
2023/07/16 10:06:55;;;;;;;1.10;1.10;;;;;;;;;;4728857;30;20056;-77
2023/07/16 10:09:35;;;;;;;1.10;1.00;;;;;;;;;;4731288;30;20543;-78
2023/07/16 10:12:08;;;;;;;2.35;1.02;;;;;;;;;;4730411;30;20061;-79
2023/07/16 10:14:40;;;;;;;1.20;1.10;;;;;;;;;;4726536;30;20129;-76
2023/07/16 10:17:07;;;;;;;1.00;1.00;;;;;;;;;;4744030;24;20135;-77
2023/07/16 10:19:46;;;;;;;1.00;1.00;;;;;;;;;;4739826;30;20066;-76
2023/07/16 10:22:13;;;;;;;1.00;1.00;;;;;;;;;;4747178;30;20561;-77
2023/07/16 10:24:41;;;;;;;1.17;1.00;;;;;;;;;;4738606;30;20088;-77
2023/07/16 10:27:08;;;;;;;1.75;1.00;;;;;;;;;;4738408;30;20052;-77
2023/07/16 10:29:37;;;;;;;1.00;1.00;;;;;;;;;;4729106;30;20522;-76
2023/07/16 10:32:08;;;;;;;1.27;1.20;;;;;;;;;;4727660;30;20409;-77
2023/07/16 10:34:36;;;;;;;1.00;1.00;;;;;;;;;;4727320;30;20064;-76
2023/07/16 10:37:03;;;;;;;1.08;0.90;;;;;;;;;;4734448;30;20052;-76
2023/07/16 10:39:31;;;;;;;1.00;1.00;;;;;;;;;;4743654;30;20180;-76
2023/07/16 10:41:58;;;;;;;0.85;0.85;;;;;;;;;;4733976;30;20488;-76
2023/07/16 10:44:26;;;;;;;1.92;1.10;;;;;;;;;;4737677;30;20164;-76
2023/07/16 10:46:55;;;;;;;1.00;1.00;;;;;;;;;;4722202;30;20099;-77
2023/07/16 10:49:29;;;;;;;1.48;0.93;;;;;;;;;;4722137;30;20575;-77
2023/07/16 10:52:00;;;;;;;1.27;1.10;;;;;;;;;;4723122;30;20057;-77
2023/07/16 10:54:27;;;;;;;;;;;;;;;;;;4721742;30;20053;-77
2023/07/16 10:56:55;;;;;;;1.50;1.10;;;;;;;;;;4720356;30;19926;-77
2023/07/16 10:59:23;;;;;;;0.80;0.80;;;;;;;;;;4742586;30;20064;-77
2023/07/16 11:01:50;;;;;;;0.80;0.80;;;;;;;;;;4732446;30;20044;-76
2023/07/16 11:04:18;;;;;;;1.05;1.05;;;;;;;;;;4731892;30;20084;-76
2023/07/16 11:06:45;;;;;;;1.00;1.00;;;;;;;;;;4732292;30;20457;-76
2023/07/16 11:09:14;;;;;;;1.13;1.10;;;;;;;;;;4740264;30;20082;-77
2023/07/16 11:11:41;;;;;;;1.30;1.20;;;;;;;;;;4726819;30;20044;-77
2023/07/16 11:14:09;;;;;;;1.00;1.00;;;;;;;;;;4722591;30;20118;-76
2023/07/16 11:16:37;;;;;;;0.75;0.75;;;;;;;;;;4725953;30;20044;-77
2023/07/16 11:19:05;;;;;;;1.00;1.00;;;;;;;;;;4721510;30;20115;-77
2023/07/16 11:21:35;;;;;;;0.90;0.90;;;;;;;;;;4717722;30;20084;-77
2023/07/16 11:24:09;;;;;;;2.15;1.00;;;;;;;;;;4722412;30;20432;-76
2023/07/16 11:26:37;;;;;;;1.10;1.10;;;;;;;;;;4717943;30;20052;-76
2023/07/16 11:29:15;;;;;;;0.90;0.90;;;;;;;;;;4719362;30;20064;-77
2023/07/16 11:31:43;;;;;;;1.05;0.90;;;;;;;;;;4721710;30;20500;-76
2023/07/16 11:34:13;;;;;;;1.23;1.13;;;;;;;;;;4720099;30;20052;-76
2023/07/16 11:36:40;;;;;;;0.85;0.85;;;;;;;;;;4715501;30;20055;-76
2023/07/16 11:39:08;;;;;;;0.90;0.90;;;;;;;;;;4717651;30;20136;-76
2023/07/16 11:41:36;;;;;;;1.00;1.00;;;;;;;;;;4723500;30;20114;-76
2023/07/16 11:44:03;;;;;;;1.00;1.00;;;;;;;;;;4715548;30;20134;-77
2023/07/16 11:46:35;;;;;;;1.17;1.10;;;;;;;;;;4719799;30;20048;-76
2023/07/16 11:49:03;;;;;;;0.95;0.95;;;;;;;;;;4715827;30;20563;-76
2023/07/16 11:51:31;;;;;;;1.30;0.80;;;;;;;;;;4723841;30;20063;-77
2023/07/16 11:53:59;;;;;;;0.70;0.70;;;;;;;;;;4716868;30;20049;-77
2023/07/16 11:56:27;;;;;;;0.82;0.82;;;;;;;;;;4719615;30;20064;-76
2023/07/16 11:58:54;;;;;;;1.88;1.00;;;;;;;;;;4723793;30;20092;-76
2023/07/16 12:01:22;;;;;;;0.70;0.70;;;;;;;;;;4725767;30;20049;-77
2023/07/16 12:03:49;;;;;;;0.80;0.80;;;;;;;;;;4721224;30;20048;-76
2023/07/16 12:06:17;;;;;;;0.73;0.73;;;;;;;;;;4719061;30;20477;-76
2023/07/16 12:08:45;;;;;;;1.05;0.90;;;;;;;;;;4722866;30;20057;-77
2023/07/16 12:11:12;;;;;;;0.95;0.90;;;;;;;;;;4729501;30;20056;-76
2023/07/16 12:13:41;;;;;;;0.90;0.90;;;;;;;;;;4722266;30;20088;-77
2023/07/16 12:16:09;;;;;;;0.70;0.70;;;;;;;;;;4729014;30;20147;-77
2023/07/16 12:18:36;;;;;;;0.65;0.65;;;;;;;;;;4718734;30;20056;-77
2023/07/16 12:21:04;;;;;;;0.70;0.70;;;;;;;;;;4724475;30;20080;-78
2023/07/16 12:23:32;;;;;;;0.60;0.60;;;;;;;;;;4717193;30;20048;-77
2023/07/16 12:25:59;;;;;;;0.80;0.75;;;;;;;;;;4725402;30;20080;-77
2023/07/16 12:28:26;;;;;;;0.65;0.65;;;;;;;;;;4724066;30;20060;-78
2023/07/16 12:30:54;;;;;;;0.60;0.60;;;;;;;;;;4728727;30;20056;-77
2023/07/16 12:33:21;;;;;;;0.80;0.80;;;;;;;;;;4718880;30;20086;-77
2023/07/16 12:35:49;;;;;;;0.60;0.60;;;;;;;;;;4722505;30;20391;-77
2023/07/16 12:38:16;;;;;;;0.60;0.60;;;;;;;;;;4722664;30;20159;-77
2023/07/16 12:40:45;;;;;;;0.68;0.65;;;;;;;;;;4717411;30;20524;-77
2023/07/16 12:43:12;;;;;;;0.73;0.73;;;;;;;;;;4721885;30;20420;-77
2023/07/16 12:45:39;;;;;;;0.80;0.80;;;;;;;;;;4725149;30;20515;-77
2023/07/16 12:48:07;;;;;;;0.70;0.70;;;;;;;;;;4726663;30;20406;-77
2023/07/16 12:50:34;;;;;;;0.70;0.70;;;;;;;;;;4726018;30;20055;-77
2023/07/16 12:53:03;;;;;;;0.82;0.75;;;;;;;;;;4723399;30;20080;-77
2023/07/16 12:55:31;;;;;;;0.60;0.60;;;;;;;;;;4716855;30;20057;-76
2023/07/16 12:57:58;;;;;;;0.70;0.70;;;;;;;;;;4714525;30;20116;-77
2023/07/16 13:00:26;;;;;;;1.75;0.70;;;;;;;;;;4724942;30;20064;-77
2023/07/16 13:02:54;;;;;;;0.80;0.80;;;;;;;;;;4717127;30;20359;-77
2023/07/16 13:05:21;;;;;;;0.63;0.63;;;;;;;;;;4735976;30;20052;-77
2023/07/16 13:07:49;;;;;;;0.60;0.60;;;;;;;;;;4733894;30;20485;-77
2023/07/16 13:10:16;;;;;;;0.90;0.90;;;;;;;;;;4731715;30;20121;-77
2023/07/16 13:12:50;;;;;;;0.88;0.88;;;;;;;;;;4721567;30;20056;-77
2023/07/16 13:15:18;;;;;;;1.08;0.70;;;;;;;;;;4724344;30;20135;-78
2023/07/16 13:17:47;;;;;;;0.68;0.68;;;;;;;;;;4728620;30;20064;-77
2023/07/16 13:20:15;;;;;;;0.73;0.73;;;;;;;;;;4735261;30;20139;-76
2023/07/16 13:22:42;;;;;;;0.60;0.60;;;;;;;;;;4727967;30;20734;-77
2023/07/16 13:25:10;;;;;;;2.90;0.70;;;;;;;;;;4714651;30;20093;-77
2023/07/16 13:27:37;;;;;;;1.60;0.68;;;;;;;;;;4726463;30;20053;-78
2023/07/16 13:30:05;;;;;;;0.65;0.65;;;;;;;;;;4719866;30;20049;-78
2023/07/16 13:32:32;;;;;;;0.70;0.70;;;;;;;;;;4720883;30;20383;-78
2023/07/16 13:35:00;;;;;;;0.70;0.70;;;;;;;;;;4718240;30;20142;-78
2023/07/16 13:37:27;;;;;;;0.70;0.70;;;;;;;;;;4726151;30;20054;-78
2023/07/16 13:39:55;;;;;;;0.60;0.60;;;;;;;;;;4718580;30;20057;-78
2023/07/16 13:42:23;;;;;;;0.60;0.60;;;;;;;;;;4712864;30;20084;-78
2023/07/16 13:44:50;;;;;;;0.52;0.52;;;;;;;;;;4727821;30;20136;-77
2023/07/16 13:47:18;;;;;;;0.98;0.65;;;;;;;;;;4720189;30;20079;-77
2023/07/16 13:49:45;;;;;;;0.70;0.70;;;;;;;;;;4720975;30;20430;-77
2023/07/16 13:52:13;;;;;;;0.60;0.60;;;;;;;;;;4717597;30;20542;-77
2023/07/16 13:54:40;;;;;;;0.60;0.60;;;;;;;;;;4716748;30;20061;-78
2023/07/16 13:57:09;;;;;;;0.60;0.60;;;;;;;;;;4719669;30;20083;-77
2023/07/16 13:59:37;;;;;;;1.65;0.50;;;;;;;;;;4727497;30;20049;-77
2023/07/16 14:02:04;;;;;;;2.60;0.45;;;;;;;;;;4724080;30;20129;-77
2023/07/16 14:04:33;;;;;;;0.95;0.68;;;;;;;;;;4724763;30;20153;-77
2023/07/16 14:07:00;;;;;;;1.10;0.77;;;;;;;;;;4724444;30;20057;-77
2023/07/16 14:09:28;;;;;;;0.82;0.82;;;;;;;;;;4719793;30;20060;-77
2023/07/16 14:11:55;;;;;;;0.60;0.60;;;;;;;;;;4726842;30;20053;-78
2023/07/16 14:14:23;;;;;;;0.70;0.70;;;;;;;;;;4720773;30;20071;-77
2023/07/16 14:16:51;;;;;;;0.70;0.70;;;;;;;;;;4718388;30;20076;-77
2023/07/16 14:19:18;;;;;;;0.68;0.68;;;;;;;;;;4724052;30;20053;-77
2023/07/16 14:21:46;;;;;;;0.73;0.60;;;;;;;;;;4722778;30;20464;-77
2023/07/16 14:24:13;;;;;;;0.80;0.80;;;;;;;;;;4724210;30;20076;-78
2023/07/16 14:26:41;;;;;;;0.70;0.70;;;;;;;;;;4721992;30;20060;-78
2023/07/16 14:29:11;;;;;;;0.65;0.65;;;;;;;;;;4722090;30;20071;-77
2023/07/16 14:31:39;;;;;;;1.30;0.80;;;;;;;;;;4725068;30;20409;-77
2023/07/16 14:34:07;;;;;;;0.70;0.70;;;;;;;;;;4714681;30;20063;-78
2023/07/16 14:36:34;;;;;;;0.63;0.50;;;;;;;;;;4724832;30;20080;-77
2023/07/16 14:39:02;;;;;;;0.70;0.70;;;;;;;;;;4720854;30;20049;-77
2023/07/16 14:41:29;;;;;;;0.80;0.80;;;;;;;;;;4722573;30;20420;-77
2023/07/16 14:43:57;;;;;;;1.00;0.90;;;;;;;;;;4719987;30;20114;-78
2023/07/16 14:46:27;;;;;;;0.80;0.80;;;;;;;;;;4723718;30;20045;-78
2023/07/16 14:48:56;;;;;;;0.70;0.70;;;;;;;;;;4726640;30;20045;-78
2023/07/16 14:51:24;;;;;;;0.77;0.70;;;;;;;;;;4721685;30;20049;-78
2023/07/16 14:53:54;;;;;;;2.25;1.00;;;;;;;;;;4728697;30;20476;-78
2023/07/16 14:56:22;;;;;;;1.08;0.68;;;;;;;;;;4725615;30;20093;-78
2023/07/16 14:58:49;;;;;;;0.60;0.60;;;;;;;;;;4725417;30;20554;-78
2023/07/16 15:01:17;;;;;;;0.93;0.70;;;;;;;;;;4725879;30;20483;-78
2023/07/16 15:03:44;;;;;;;0.65;0.65;;;;;;;;;;4716778;30;20086;-78
2023/07/16 15:06:12;;;;;;;0.73;0.60;;;;;;;;;;4724468;30;20053;-78
2023/07/16 15:08:39;;;;;;;0.50;0.50;;;;;;;;;;4717942;30;20163;-78
2023/07/16 15:11:07;;;;;;;0.70;0.70;;;;;;;;;;4718003;30;20056;-77